首页
METAR-TAF:

METAR-TAF

机场 :

勒芒, 法国

纬度: 47-56N, 经度: 000-12E, 海拔: 59米

当前天气观测

该预报发布于17分钟前的03:00 UTC
风速3节,风向东转东北
温度 6°C
湿度 93%
气压 1009 hPa
能见度10公里或以上
多云层高于1000英尺
阴天层高于4300英尺

METAR: LFRM 170300Z AUTO 07003KT 9999 BKN010 OVC043 06/05 Q1009

时间: 04:17 (03:17 UTC)

预报

该预报发布于16小时和17分钟前的11:00 UTC
预报有效从16日的 12点(UTC)到 17日的 12点(UTC)
风速4节,风向东转东南
能見度: 9000
多云层高于1300英尺
短暂存在
从 16日的 12点(UTC)到 16日的 13点(UTC)
多云层高于400英尺
小雨
成为
从 16日的 13点(UTC)到 16日的 15点(UTC)
散云层高于1300英尺
多云层高于2000英尺
几率 40% :
短暂存在
从 16日的 17点(UTC)到 17日的 02点(UTC)
多云层高于1200英尺
成为
从 17日的 02点(UTC)到 17日的 04点(UTC)
能見度: 3000
多云层高于300英尺
轻雾
几率 30% :
短暂存在
从 17日的 04点(UTC)到 17日的 06点(UTC)
能見度: 0800
阴天层高于200英尺
成为
从 17日的 09点(UTC)到 17日的 11点(UTC)
能见度10公里或以上
多云层高于2500英尺

TAF: LFRM 161100Z 1612/1712 11004KT 9000 BKN013 TEMPO 1612/1613 -RA BKN004 BECMG 1613/1615 SCT013 BKN020 PROB40 TEMPO 1617/1702 BKN012 BECMG 1702/1704 3000 BR BKN003 PROB30 TEMPO 1704/1706 0800 FG OVC002 BECMG 1709/1711 9999 NSW BKN025

超过4000个机场的气象观测和天气预报(METAR&TAF报告)。

可查询的气象台以黄色和红色小点在地图上表示。

将鼠标移到小点上方,可查看气象台名称。

然后点击查看天气观测和预报。

如需切换地图:点击带黑十字的绿色按钮放大地图;点击带横线的绿色按钮缩小地图;或者点击绿色箭头查看邻近地区的地图。


METAR-TAF: